createdAt,value
2018-12-07T00:00:04.789Z,12.23
2018-12-07T00:01:04.785Z,12.21
2018-12-07T00:02:04.787Z,12.26
2018-12-07T00:03:04.801Z,12.22
2018-12-07T00:04:04.802Z,12.22
2018-12-07T00:05:04.805Z,12.19
2018-12-07T00:06:04.806Z,12.08
2018-12-07T00:07:04.814Z,12.21
2018-12-07T00:08:04.818Z,12.13
2018-12-07T00:09:04.824Z,12.19
2018-12-07T00:10:04.843Z,12.19
2018-12-07T00:11:04.839Z,12.11
2018-12-07T00:12:04.841Z,12.08
2018-12-07T00:13:04.850Z,12.12
2018-12-07T00:14:04.851Z,12.07
2018-12-07T00:15:04.856Z,12.12
2018-12-07T00:16:04.871Z,12.07
2018-12-07T00:17:04.869Z,12.05
2018-12-07T00:18:04.876Z,12.01
2018-12-07T00:19:04.884Z,12.05
2018-12-07T00:20:04.890Z,12.03
2018-12-07T00:21:04.897Z,12.04
2018-12-07T00:22:04.901Z,12.00
2018-12-07T00:23:04.905Z,12.07
2018-12-07T00:24:04.914Z,12.12
2018-12-07T00:25:04.913Z,12.05
2018-12-07T00:26:04.922Z,12.07
2018-12-07T00:27:04.943Z,12.05
2018-12-07T00:28:04.933Z,12.05
2018-12-07T00:29:04.949Z,12.04
2018-12-07T00:30:04.946Z,12.07
2018-12-07T00:31:04.959Z,12.05
2018-12-07T00:32:04.958Z,12.05
2018-12-07T00:33:04.974Z,12.03
2018-12-07T00:34:04.967Z,12.07
2018-12-07T00:35:04.979Z,12.03
2018-12-07T00:36:04.988Z,12.03
2018-12-07T00:37:05.006Z,12.00
2018-12-07T00:38:05.020Z,11.88
2018-12-07T00:40:05.006Z,12.03
2018-12-07T00:42:05.028Z,12.01
2018-12-07T00:43:05.019Z,12.04
2018-12-07T00:44:05.031Z,12.01
2018-12-07T00:45:05.037Z,12.03
2018-12-07T00:46:05.039Z,11.90
2018-12-07T00:47:05.049Z,12.08
2018-12-07T00:48:05.051Z,12.05
2018-12-07T00:49:05.061Z,12.07
2018-12-07T00:50:05.067Z,11.93
2018-12-07T00:51:05.075Z,12.01
2018-12-07T00:52:05.082Z,12.07
2018-12-07T00:53:05.094Z,12.03
2018-12-07T00:54:05.092Z,12.03
2018-12-07T00:55:05.101Z,12.07
2018-12-07T00:56:05.106Z,12.04
2018-12-07T00:57:05.115Z,11.94
2018-12-07T00:58:05.112Z,11.90
2018-12-07T00:59:05.307Z,12.04
2018-12-07T01:00:05.126Z,12.03
2018-12-07T01:01:05.147Z,11.88
2018-12-07T01:02:05.145Z,11.90
2018-12-07T01:03:05.143Z,12.04
2018-12-07T01:04:05.154Z,11.90
2018-12-07T01:05:05.160Z,11.84
2018-12-07T01:06:05.164Z,11.96
2018-12-07T01:07:05.170Z,11.93
2018-12-07T01:08:05.179Z,12.03
2018-12-07T01:09:05.173Z,11.93
2018-12-07T01:10:05.183Z,11.84
2018-12-07T01:12:05.198Z,11.90
2018-12-07T01:13:05.202Z,11.96
2018-12-07T01:14:05.213Z,11.87
2018-12-07T01:15:05.210Z,11.90
2018-12-07T01:16:05.219Z,11.87
2018-12-07T01:17:05.233Z,11.87
2018-12-07T01:18:05.242Z,11.97
2018-12-07T01:19:05.242Z,11.84
2018-12-07T01:20:05.262Z,11.87
2018-12-07T01:21:05.253Z,11.94
2018-12-07T01:22:05.314Z,12.00
2018-12-07T01:23:05.264Z,11.90
2018-12-07T01:24:05.273Z,12.00
2018-12-07T01:25:05.274Z,11.97
2018-12-07T01:26:05.284Z,11.94
2018-12-07T01:27:05.291Z,11.90
2018-12-07T01:28:05.292Z,11.90
2018-12-07T01:29:05.302Z,11.97
2018-12-07T01:30:05.305Z,11.94
2018-12-07T01:31:05.313Z,11.90
2018-12-07T01:32:05.313Z,11.87
2018-12-07T01:33:05.327Z,11.88
2018-12-07T01:34:05.336Z,11.90
2018-12-07T01:35:05.334Z,11.94
2018-12-07T01:36:05.342Z,11.90
2018-12-07T01:37:05.353Z,11.94
2018-12-07T01:38:05.354Z,11.93
2018-12-07T01:39:05.373Z,11.97
2018-12-07T01:40:05.366Z,11.93
2018-12-07T01:41:05.392Z,11.97
2018-12-07T01:42:05.387Z,11.90
2018-12-07T01:43:05.396Z,11.87
2018-12-07T01:44:05.390Z,11.90
2018-12-07T01:45:05.397Z,11.88
2018-12-07T01:46:05.395Z,11.93
2018-12-07T01:47:05.401Z,11.88
2018-12-07T01:48:05.432Z,11.94
2018-12-07T01:49:05.423Z,11.94
2018-12-07T01:50:05.433Z,11.90
2018-12-07T01:51:05.427Z,11.93
2018-12-07T01:52:05.436Z,11.87
2018-12-07T01:53:05.439Z,11.88
2018-12-07T01:54:05.446Z,11.96
2018-12-07T01:55:05.453Z,11.96
2018-12-07T01:56:05.507Z,11.93
2018-12-07T01:57:05.467Z,11.79
2018-12-07T01:58:05.473Z,11.88
2018-12-07T01:59:05.493Z,11.90
2018-12-07T02:00:05.483Z,11.87
2018-12-07T02:01:05.491Z,11.84
2018-12-07T02:02:05.496Z,11.87
2018-12-07T02:03:05.500Z,11.88
2018-12-07T02:04:05.507Z,11.84
2018-12-07T02:05:05.515Z,11.82
2018-12-07T02:06:05.523Z,11.87
2018-12-07T02:07:05.525Z,11.87
2018-12-07T02:08:05.529Z,11.82
2018-12-07T02:09:05.540Z,11.79
2018-12-07T02:10:05.555Z,11.77
2018-12-07T02:11:05.561Z,11.82
2018-12-07T02:12:05.560Z,11.85
2018-12-07T02:13:05.566Z,11.79
2018-12-07T02:14:05.580Z,11.84
2018-12-07T02:15:05.590Z,11.75
2018-12-07T02:16:05.592Z,11.85
2018-12-07T02:17:05.596Z,11.79
2018-12-07T02:18:05.585Z,11.78
2018-12-07T02:19:05.596Z,11.79
2018-12-07T02:20:05.602Z,11.87
2018-12-07T02:21:05.626Z,11.81
2018-12-07T02:22:05.611Z,11.79
2018-12-07T02:23:05.615Z,11.88
2018-12-07T02:24:05.631Z,11.85
2018-12-07T02:25:05.631Z,11.85
2018-12-07T02:26:05.638Z,11.75
2018-12-07T02:28:05.649Z,11.84
2018-12-07T02:29:05.659Z,11.79
2018-12-07T02:30:05.661Z,11.93
2018-12-07T02:31:05.675Z,11.85
2018-12-07T02:32:05.748Z,11.82
2018-12-07T02:33:05.725Z,11.85
2018-12-07T02:34:05.806Z,11.82
2018-12-07T02:35:05.908Z,11.87
2018-12-07T02:36:05.952Z,11.81
2018-12-07T02:37:05.974Z,11.93
2018-12-07T02:38:05.749Z,11.87
2018-12-07T02:39:05.821Z,11.79
2018-12-07T02:40:05.879Z,11.85
2018-12-07T02:42:05.803Z,11.87
2018-12-07T02:43:05.741Z,11.82
2018-12-07T02:44:05.750Z,11.79
2018-12-07T02:45:05.754Z,11.81
2018-12-07T02:46:05.752Z,11.85
2018-12-07T02:47:05.758Z,11.81
2018-12-07T02:48:05.770Z,11.78
2018-12-07T02:49:05.776Z,11.84
2018-12-07T02:50:05.791Z,11.82
2018-12-07T02:51:05.791Z,11.85
2018-12-07T02:52:05.793Z,11.85
2018-12-07T02:53:05.799Z,11.84
2018-12-07T02:54:05.798Z,11.78
2018-12-07T02:55:05.799Z,11.81
2018-12-07T02:56:05.809Z,11.81
2018-12-07T02:57:05.824Z,11.79
2018-12-07T02:58:05.822Z,11.81
2018-12-07T02:59:05.825Z,11.87
2018-12-07T03:00:05.837Z,11.90
2018-12-07T03:01:05.901Z,11.90
2018-12-07T03:02:05.895Z,11.93
2018-12-07T03:03:05.852Z,11.93
2018-12-07T03:04:05.863Z,11.90
2018-12-07T03:05:05.919Z,11.97
2018-12-07T03:06:05.870Z,11.88
2018-12-07T03:07:05.879Z,11.94
2018-12-07T03:08:05.882Z,11.96
2018-12-07T03:09:05.891Z,11.93
2018-12-07T03:10:05.911Z,11.94
2018-12-07T03:11:05.909Z,11.88
2018-12-07T03:12:05.910Z,11.94
2018-12-07T03:13:05.918Z,11.93
2018-12-07T03:14:05.933Z,11.90
2018-12-07T03:15:05.927Z,11.93
2018-12-07T03:16:05.957Z,11.90
2018-12-07T03:17:05.941Z,11.79
2018-12-07T03:18:05.957Z,11.81
2018-12-07T03:19:05.953Z,11.81
2018-12-07T03:20:05.960Z,11.85
2018-12-07T03:21:05.983Z,11.93
2018-12-07T03:22:05.973Z,11.87
2018-12-07T03:23:05.976Z,11.93
2018-12-07T03:24:05.979Z,11.84
2018-12-07T03:25:05.990Z,11.90
2018-12-07T03:26:05.999Z,11.87
2018-12-07T03:27:06.003Z,11.93
2018-12-07T03:28:06.004Z,11.88
2018-12-07T03:29:06.016Z,11.90
2018-12-07T03:30:06.049Z,11.90
2018-12-07T03:31:06.022Z,11.93
2018-12-07T03:32:06.032Z,11.88
2018-12-07T03:33:06.037Z,11.90
2018-12-07T03:34:06.039Z,11.94
2018-12-07T03:35:06.046Z,11.90
2018-12-07T03:36:06.053Z,11.82
2018-12-07T03:37:06.056Z,11.85
2018-12-07T03:38:06.064Z,11.88
2018-12-07T03:39:06.071Z,11.85
2018-12-07T03:40:06.080Z,11.88
2018-12-07T03:41:06.085Z,11.87
2018-12-07T03:42:06.083Z,11.88
2018-12-07T03:43:06.101Z,11.84
2018-12-07T03:44:06.103Z,11.90
2018-12-07T03:45:06.112Z,11.94
2018-12-07T03:46:06.113Z,11.94
2018-12-07T03:47:06.200Z,11.85
2018-12-07T03:48:06.170Z,11.84
2018-12-07T03:49:06.151Z,11.87
2018-12-07T03:50:06.139Z,11.87
2018-12-07T03:51:06.138Z,11.93
2018-12-07T03:52:06.149Z,11.87
2018-12-07T03:53:06.157Z,11.85
2018-12-07T03:54:06.159Z,11.93
2018-12-07T03:55:06.168Z,11.88
2018-12-07T03:56:06.174Z,11.84
2018-12-07T03:57:06.182Z,11.84
2018-12-07T03:58:06.184Z,11.84
2018-12-07T03:59:06.199Z,11.85
2018-12-07T04:00:06.196Z,11.78
2018-12-07T04:01:06.220Z,11.87
2018-12-07T04:02:06.204Z,11.82
2018-12-07T04:03:06.214Z,11.85
2018-12-07T04:04:06.228Z,11.82
2018-12-07T04:05:06.224Z,11.93
2018-12-07T04:06:06.229Z,11.90
2018-12-07T04:07:06.250Z,11.88
2018-12-07T04:08:06.241Z,11.88
2018-12-07T04:09:06.250Z,11.87
2018-12-07T04:10:06.254Z,11.77
2018-12-07T04:12:06.269Z,11.84
2018-12-07T04:13:06.275Z,11.81
2018-12-07T04:14:06.280Z,11.90
2018-12-07T04:15:06.284Z,11.87
2018-12-07T04:16:06.287Z,11.93
2018-12-07T04:17:06.293Z,11.90
2018-12-07T04:18:06.301Z,11.90
2018-12-07T04:19:06.406Z,11.93
2018-12-07T04:20:06.317Z,11.88
2018-12-07T04:21:06.331Z,11.94
2018-12-07T04:22:06.316Z,11.90
2018-12-07T04:23:06.335Z,11.93
2018-12-07T04:24:06.355Z,11.87
2018-12-07T04:25:06.339Z,11.87
2018-12-07T04:26:06.345Z,11.87
2018-12-07T04:27:06.359Z,11.93
2018-12-07T04:28:06.366Z,11.90
2018-12-07T04:29:06.381Z,11.94
2018-12-07T04:30:06.371Z,11.88
2018-12-07T04:31:06.375Z,11.90
2018-12-07T04:32:06.385Z,11.90
2018-12-07T04:33:06.390Z,11.94
2018-12-07T04:34:06.396Z,11.93
2018-12-07T04:35:06.404Z,11.93
2018-12-07T04:36:07.529Z,11.94
2018-12-07T04:37:06.415Z,12.00
2018-12-07T04:38:06.420Z,11.94
2018-12-07T04:39:06.430Z,11.96
2018-12-07T04:40:06.433Z,11.94
2018-12-07T04:41:06.439Z,11.96
2018-12-07T04:42:06.445Z,11.96
2018-12-07T04:43:06.447Z,11.97
2018-12-07T04:44:06.460Z,11.96
2018-12-07T04:46:06.471Z,11.90
2018-12-07T04:47:06.475Z,11.96
2018-12-07T04:48:06.479Z,11.98
2018-12-07T04:49:06.491Z,11.90
2018-12-07T04:50:06.498Z,11.97
2018-12-07T04:51:06.499Z,11.96
2018-12-07T04:52:06.507Z,11.96
2018-12-07T04:53:06.509Z,11.90
2018-12-07T04:54:06.522Z,11.84
2018-12-07T04:55:06.530Z,11.97
2018-12-07T04:56:06.532Z,11.96
2018-12-07T04:57:06.542Z,11.90
2018-12-07T04:58:06.547Z,11.93
2018-12-07T04:59:06.548Z,11.97
2018-12-07T05:01:06.561Z,11.90
2018-12-07T05:02:06.567Z,12.03
2018-12-07T05:03:06.574Z,12.03
2018-12-07T05:04:06.574Z,12.03
2018-12-07T05:05:06.584Z,12.03
2018-12-07T05:06:06.584Z,11.96
2018-12-07T05:07:06.592Z,11.94
2018-12-07T05:08:06.600Z,12.00
2018-12-07T05:09:06.608Z,12.00
2018-12-07T05:10:06.611Z,12.01
2018-12-07T05:11:06.613Z,11.94
2018-12-07T05:12:06.625Z,12.01
2018-12-07T05:13:06.634Z,12.04
2018-12-07T05:14:06.642Z,12.01
2018-12-07T05:15:06.651Z,11.90
2018-12-07T05:16:06.656Z,11.88
2018-12-07T05:17:06.653Z,11.96
2018-12-07T05:18:06.666Z,12.03
2018-12-07T05:19:06.676Z,11.97
2018-12-07T05:20:06.671Z,11.90
2018-12-07T05:21:06.679Z,11.97
2018-12-07T05:22:06.687Z,11.87
2018-12-07T05:23:06.687Z,12.00
2018-12-07T05:25:06.714Z,11.97
2018-12-07T05:26:06.720Z,11.97
2018-12-07T05:27:06.711Z,11.94
2018-12-07T05:28:06.720Z,11.94
2018-12-07T05:29:06.731Z,11.84
2018-12-07T05:30:06.731Z,11.90
2018-12-07T05:31:06.737Z,11.90
2018-12-07T05:32:06.742Z,11.90
2018-12-07T05:33:06.752Z,11.94
2018-12-07T05:34:06.758Z,12.01
2018-12-07T05:35:06.772Z,12.01
2018-12-07T05:36:06.772Z,11.94
2018-12-07T05:37:06.776Z,11.93
2018-12-07T05:38:06.784Z,12.01
2018-12-07T05:39:06.790Z,12.04
2018-12-07T05:40:06.795Z,11.94
2018-12-07T05:41:06.795Z,12.03
2018-12-07T05:42:06.807Z,11.90
2018-12-07T05:43:06.805Z,11.88
2018-12-07T05:44:06.815Z,11.84
2018-12-07T05:45:06.817Z,11.93
2018-12-07T05:46:06.830Z,11.90
2018-12-07T05:47:06.834Z,11.96
2018-12-07T05:48:06.845Z,11.82
2018-12-07T05:49:06.860Z,12.01
2018-12-07T05:50:06.851Z,11.88
2018-12-07T05:51:06.861Z,11.93
2018-12-07T05:52:06.868Z,11.90
2018-12-07T05:53:06.873Z,12.00
2018-12-07T05:54:06.881Z,12.03
2018-12-07T05:55:06.879Z,11.82
2018-12-07T05:56:06.897Z,11.96
2018-12-07T05:57:06.898Z,11.87
2018-12-07T05:58:06.908Z,11.93
2018-12-07T05:59:06.915Z,12.07
2018-12-07T06:00:06.915Z,12.03
2018-12-07T06:01:06.926Z,12.05
2018-12-07T06:02:06.921Z,12.03
2018-12-07T06:03:06.949Z,11.96
2018-12-07T06:04:06.942Z,11.90
2018-12-07T06:05:06.940Z,11.94
2018-12-07T06:06:06.949Z,11.96
2018-12-07T06:07:06.957Z,12.03
2018-12-07T06:08:06.961Z,12.03
2018-12-07T06:09:06.968Z,11.93
2018-12-07T06:10:06.974Z,11.90
2018-12-07T06:12:06.980Z,11.93
2018-12-07T06:13:06.994Z,12.03
2018-12-07T06:14:07.002Z,12.04
2018-12-07T06:16:07.007Z,12.03
2018-12-07T06:17:07.025Z,12.05
2018-12-07T06:18:07.014Z,12.04
2018-12-07T06:19:07.026Z,11.93
2018-12-07T06:20:07.039Z,11.96
2018-12-07T06:21:07.042Z,12.07
2018-12-07T06:22:07.042Z,12.00
2018-12-07T06:23:07.050Z,12.04
2018-12-07T06:24:07.054Z,12.04
2018-12-07T06:25:07.058Z,12.07
2018-12-07T06:26:07.078Z,12.03
2018-12-07T06:27:08.361Z,12.05
2018-12-07T06:28:07.092Z,12.01
2018-12-07T06:29:07.091Z,12.03
2018-12-07T06:30:07.094Z,12.07
2018-12-07T06:31:07.099Z,12.08
2018-12-07T06:32:07.111Z,12.07
2018-12-07T06:33:07.108Z,12.05
2018-12-07T06:34:07.111Z,12.03
2018-12-07T06:35:07.126Z,12.05
2018-12-07T06:36:07.127Z,12.05
2018-12-07T06:37:07.134Z,12.03
2018-12-07T06:38:07.139Z,12.03
2018-12-07T06:39:07.140Z,12.01
2018-12-07T06:40:07.168Z,12.01
2018-12-07T06:41:07.160Z,12.05
2018-12-07T06:42:07.168Z,12.07
2018-12-07T06:43:07.166Z,12.05
2018-12-07T06:44:07.163Z,12.03
2018-12-07T06:45:07.176Z,12.01
2018-12-07T06:46:07.185Z,11.93
2018-12-07T06:47:07.191Z,11.94
2018-12-07T06:48:07.213Z,12.03
2018-12-07T06:49:07.205Z,12.01
2018-12-07T06:50:07.212Z,11.96
2018-12-07T06:51:07.226Z,11.96
2018-12-07T06:52:07.214Z,11.90
2018-12-07T06:53:07.226Z,12.03
2018-12-07T06:54:07.234Z,12.03
2018-12-07T06:55:07.242Z,12.03
2018-12-07T06:56:07.246Z,11.94
2018-12-07T06:57:07.251Z,11.88
2018-12-07T06:59:07.270Z,11.96
2018-12-07T07:01:07.282Z,12.00
2018-12-07T07:02:07.292Z,11.90
2018-12-07T07:03:07.286Z,11.90
2018-12-07T07:04:07.298Z,12.04
2018-12-07T07:05:07.302Z,12.04
2018-12-07T07:06:07.300Z,11.90
2018-12-07T07:07:07.308Z,12.05
2018-12-07T07:08:07.328Z,12.00
2018-12-07T07:09:07.312Z,11.87
2018-12-07T07:10:07.329Z,12.07
2018-12-07T07:11:07.344Z,11.93
2018-12-07T07:12:07.340Z,11.96
2018-12-07T07:13:07.352Z,11.93
2018-12-07T07:14:07.354Z,11.96
2018-12-07T07:15:07.354Z,11.98
2018-12-07T07:16:07.362Z,11.93
2018-12-07T07:17:07.368Z,12.03
2018-12-07T07:18:07.376Z,11.90
2018-12-07T07:19:07.392Z,11.87
2018-12-07T07:20:07.396Z,12.04
2018-12-07T07:21:07.395Z,12.03
2018-12-07T07:22:07.389Z,12.04
2018-12-07T07:23:07.405Z,12.04
2018-12-07T07:24:07.409Z,12.04
2018-12-07T07:25:07.407Z,12.03
2018-12-07T07:26:07.411Z,12.00
2018-12-07T07:27:07.429Z,11.98
2018-12-07T07:28:07.428Z,11.98
2018-12-07T07:29:07.430Z,12.03
2018-12-07T07:31:07.450Z,11.96
2018-12-07T07:32:07.454Z,12.05
2018-12-07T07:33:07.458Z,11.90
2018-12-07T07:34:07.464Z,11.87
2018-12-07T07:35:07.470Z,11.98
2018-12-07T07:36:07.476Z,12.03
2018-12-07T07:37:07.488Z,11.88
2018-12-07T07:38:07.486Z,12.03
2018-12-07T07:39:07.492Z,11.94
2018-12-07T07:40:07.524Z,11.88
2018-12-07T07:41:07.515Z,11.98
2018-12-07T07:42:07.512Z,11.94
2018-12-07T07:43:07.513Z,11.85
2018-12-07T07:44:07.520Z,11.88
2018-12-07T07:45:07.531Z,12.01
2018-12-07T07:46:07.535Z,12.01
2018-12-07T07:47:07.540Z,11.88
2018-12-07T07:48:07.549Z,11.90
2018-12-07T07:49:07.559Z,11.90
2018-12-07T07:50:07.563Z,11.98
2018-12-07T07:51:07.596Z,11.90
2018-12-07T07:52:07.576Z,11.96
2018-12-07T07:53:07.589Z,11.90
2018-12-07T07:54:07.598Z,11.87
2018-12-07T07:55:07.596Z,11.87
2018-12-07T07:56:15.176Z,11.84
2018-12-07T07:57:07.629Z,11.94
2018-12-07T07:58:07.614Z,11.85
2018-12-07T08:00:07.637Z,11.96
2018-12-07T08:01:07.627Z,11.84
2018-12-07T08:02:07.643Z,11.88
2018-12-07T08:03:07.648Z,11.93
2018-12-07T08:04:07.655Z,11.88
2018-12-07T08:05:07.655Z,11.90
2018-12-07T08:06:07.698Z,11.93
2018-12-07T08:07:07.662Z,11.94
2018-12-07T08:08:07.687Z,11.97
2018-12-07T08:09:07.685Z,11.94
2018-12-07T08:10:07.679Z,12.00
2018-12-07T08:11:07.682Z,11.94
2018-12-07T08:12:07.690Z,12.00
2018-12-07T08:13:07.694Z,12.04
2018-12-07T08:14:07.739Z,12.07
2018-12-07T08:15:07.711Z,11.90
2018-12-07T08:16:07.715Z,11.98
2018-12-07T08:17:07.726Z,12.04
2018-12-07T08:18:07.747Z,11.98
2018-12-07T08:19:07.748Z,11.90
2018-12-07T08:20:07.744Z,11.90
2018-12-07T08:21:07.787Z,11.90
2018-12-07T08:22:07.758Z,12.01
2018-12-07T08:23:14.508Z,11.97
2018-12-07T08:24:07.771Z,11.97
2018-12-07T08:25:07.770Z,11.94
2018-12-07T08:26:07.781Z,11.90
2018-12-07T08:27:07.781Z,11.88
2018-12-07T08:28:07.790Z,11.93
2018-12-07T08:29:07.801Z,11.87
2018-12-07T08:30:07.803Z,11.81
2018-12-07T08:31:07.810Z,11.98
2018-12-07T08:32:07.805Z,12.00
2018-12-07T08:33:07.822Z,11.88
2018-12-07T08:34:07.848Z,11.97
2018-12-07T08:35:07.844Z,11.96
2018-12-07T08:36:07.887Z,11.87
2018-12-07T08:37:07.841Z,11.94
2018-12-07T08:38:07.877Z,11.93
2018-12-07T08:39:07.850Z,11.87
2018-12-07T08:40:07.858Z,11.94
2018-12-07T08:42:07.884Z,11.96
2018-12-07T08:43:07.877Z,12.00
2018-12-07T08:44:07.883Z,11.96
2018-12-07T08:45:07.896Z,11.94
2018-12-07T08:46:07.903Z,11.84
2018-12-07T08:47:07.907Z,11.94
2018-12-07T08:48:07.907Z,11.93
2018-12-07T08:49:07.921Z,11.84
2018-12-07T08:50:07.918Z,11.90
2018-12-07T08:51:07.929Z,11.97
2018-12-07T08:52:07.942Z,11.94
2018-12-07T08:53:07.938Z,11.93
2018-12-07T08:54:07.943Z,11.90
2018-12-07T08:55:07.954Z,11.94
2018-12-07T08:56:07.959Z,11.94
2018-12-07T08:57:08.051Z,11.93
2018-12-07T08:59:07.974Z,11.96
2018-12-07T09:00:07.986Z,11.94
2018-12-07T09:01:07.993Z,11.90
2018-12-07T09:02:07.995Z,11.93
2018-12-07T09:03:08.007Z,11.88
2018-12-07T09:04:08.009Z,11.87
2018-12-07T09:05:08.018Z,11.88
2018-12-07T09:06:08.014Z,11.81
2018-12-07T09:07:08.031Z,11.88
2018-12-07T09:08:14.963Z,11.87
2018-12-07T09:10:08.044Z,11.90
2018-12-07T09:11:08.047Z,11.85
2018-12-07T09:12:08.050Z,11.90
2018-12-07T09:13:08.056Z,11.94
2018-12-07T09:14:08.062Z,11.87
2018-12-07T09:15:08.105Z,11.88
2018-12-07T09:16:08.073Z,11.85
2018-12-07T09:17:08.078Z,11.78
2018-12-07T09:18:08.086Z,11.90
2018-12-07T09:19:08.088Z,11.87
2018-12-07T09:20:08.099Z,11.96
2018-12-07T09:21:08.106Z,11.87
2018-12-07T09:22:08.103Z,11.87
2018-12-07T09:23:08.115Z,11.94
2018-12-07T09:24:08.118Z,11.94
2018-12-07T09:25:08.126Z,11.97
2018-12-07T09:26:08.127Z,11.88
2018-12-07T09:27:08.133Z,11.85
2018-12-07T09:28:08.143Z,11.94
2018-12-07T09:29:08.151Z,11.93
2018-12-07T09:30:08.160Z,11.87
2018-12-07T09:32:08.174Z,11.97
2018-12-07T09:33:08.182Z,11.84
2018-12-07T09:34:08.181Z,11.84
2018-12-07T09:35:08.301Z,11.87
2018-12-07T09:36:08.202Z,11.81
2018-12-07T09:39:08.205Z,11.82
2018-12-07T09:40:08.228Z,11.93
2018-12-07T09:41:08.219Z,11.84
2018-12-07T09:42:08.229Z,11.88
2018-12-07T09:43:08.233Z,11.87
2018-12-07T09:45:08.247Z,11.84
2018-12-07T09:46:08.251Z,11.88
2018-12-07T09:48:08.270Z,11.88
2018-12-07T09:49:08.292Z,11.82
2018-12-07T09:50:08.343Z,11.87
2018-12-07T09:51:08.297Z,11.87
2018-12-07T09:52:08.286Z,11.82
2018-12-07T09:53:08.300Z,11.82
2018-12-07T09:54:08.299Z,11.87
2018-12-07T09:55:08.309Z,11.88
2018-12-07T09:56:08.306Z,11.78
2018-12-07T09:57:08.319Z,11.78
2018-12-07T09:58:08.322Z,11.82
2018-12-07T09:59:08.330Z,11.84
2018-12-07T10:00:08.338Z,11.79
2018-12-07T10:01:08.338Z,11.85
2018-12-07T10:02:08.374Z,11.78
2018-12-07T10:03:08.350Z,11.87
2018-12-07T10:04:08.359Z,11.87
2018-12-07T10:06:08.371Z,11.88
2018-12-07T10:07:08.380Z,11.94
2018-12-07T10:08:08.380Z,11.93
2018-12-07T10:09:08.393Z,11.78
2018-12-07T10:10:08.391Z,11.90
2018-12-07T10:11:08.406Z,11.90
2018-12-07T10:12:08.412Z,11.85
2018-12-07T10:13:08.429Z,11.93
2018-12-07T10:14:08.419Z,11.94
2018-12-07T10:15:08.430Z,11.93
2018-12-07T10:17:08.432Z,11.90
2018-12-07T10:18:08.446Z,11.82
2018-12-07T10:19:08.546Z,11.94
2018-12-07T10:20:08.458Z,11.96
2018-12-07T10:21:08.456Z,11.90
2018-12-07T10:22:08.462Z,11.84
2018-12-07T10:23:08.465Z,11.93
2018-12-07T10:24:08.481Z,11.85
2018-12-07T10:25:08.478Z,11.87
2018-12-07T10:26:08.487Z,11.94
2018-12-07T10:27:08.545Z,11.90
2018-12-07T10:28:08.501Z,11.87
2018-12-07T10:29:08.506Z,11.90
2018-12-07T10:30:08.511Z,11.93
2018-12-07T10:31:08.521Z,11.90
2018-12-07T10:33:08.539Z,11.88
2018-12-07T10:34:08.546Z,11.84
2018-12-07T10:37:08.572Z,11.87
2018-12-07T10:39:08.557Z,11.87
2018-12-07T10:40:08.583Z,11.85
2018-12-07T10:41:08.579Z,11.94
2018-12-07T10:42:08.579Z,11.93
2018-12-07T10:43:08.587Z,11.84
2018-12-07T10:44:08.594Z,11.90
2018-12-07T10:45:08.601Z,11.90
2018-12-07T10:46:08.603Z,11.84
2018-12-07T10:47:08.608Z,11.85
2018-12-07T10:48:08.620Z,11.97
2018-12-07T10:49:08.629Z,11.87
2018-12-07T10:50:08.635Z,11.96
2018-12-07T10:51:08.669Z,11.93
2018-12-07T10:53:08.668Z,11.94
2018-12-07T10:54:08.664Z,11.93
2018-12-07T10:55:08.674Z,11.87
2018-12-07T10:57:08.674Z,12.03
2018-12-07T10:58:08.686Z,12.07
2018-12-07T10:59:08.696Z,12.05
2018-12-07T11:00:08.700Z,12.05
2018-12-07T11:01:08.707Z,12.03
2018-12-07T11:02:08.704Z,12.07
2018-12-07T11:03:08.734Z,12.04
2018-12-07T11:04:08.717Z,12.05
2018-12-07T11:05:08.733Z,12.01
2018-12-07T11:06:08.730Z,12.04
2018-12-07T11:07:08.728Z,12.01
2018-12-07T11:08:08.749Z,12.03
2018-12-07T11:09:08.751Z,12.11
2018-12-07T11:10:08.762Z,12.15
2018-12-07T11:11:08.761Z,12.04
2018-12-07T11:13:08.767Z,12.08
2018-12-07T11:14:08.785Z,12.13
2018-12-07T11:15:08.789Z,12.11
2018-12-07T11:16:08.790Z,12.15
2018-12-07T11:17:08.801Z,12.11
2018-12-07T11:18:08.800Z,12.11
2018-12-07T11:19:08.817Z,12.18
2018-12-07T11:20:08.816Z,12.12
2018-12-07T11:21:08.835Z,12.15
2018-12-07T11:22:08.848Z,12.13
2018-12-07T11:23:08.833Z,12.13
2018-12-07T11:24:08.835Z,12.15
2018-12-07T11:25:08.875Z,12.12
2018-12-07T11:26:08.852Z,12.16
2018-12-07T11:27:08.856Z,12.18
2018-12-07T11:28:08.871Z,12.18
2018-12-07T11:29:08.882Z,12.12
2018-12-07T11:30:08.875Z,12.11
2018-12-07T11:31:08.903Z,12.16
2018-12-07T11:32:08.888Z,12.13
2018-12-07T11:33:08.913Z,12.19
2018-12-07T11:34:08.897Z,12.16
2018-12-07T11:35:08.910Z,12.08
2018-12-07T11:36:08.912Z,12.12
2018-12-07T11:37:08.931Z,12.18
2018-12-07T11:38:08.925Z,12.12
2018-12-07T11:40:08.956Z,12.18
2018-12-07T11:41:08.942Z,12.13
2018-12-07T11:42:08.969Z,12.18
2018-12-07T11:43:08.970Z,12.22
2018-12-07T11:44:08.958Z,12.15
2018-12-07T11:45:08.960Z,12.18
2018-12-07T11:46:08.980Z,12.12
2018-12-07T11:47:08.975Z,12.05
2018-12-07T11:48:08.984Z,12.11
2018-12-07T11:49:09.000Z,12.13
2018-12-07T11:50:08.992Z,12.16
2018-12-07T11:51:09.001Z,12.08
2018-12-07T11:52:09.002Z,12.12
2018-12-07T11:53:09.182Z,12.18
2018-12-07T11:54:09.024Z,12.16
2018-12-07T11:55:09.032Z,12.12
2018-12-07T11:56:09.038Z,12.11
2018-12-07T11:57:09.053Z,12.21
2018-12-07T11:58:09.105Z,12.19
2018-12-07T11:59:09.057Z,12.18
2018-12-07T12:00:09.056Z,12.13
2018-12-07T12:02:09.113Z,12.23
2018-12-07T12:03:09.071Z,12.29
2018-12-07T12:04:09.087Z,12.29
2018-12-07T12:05:09.093Z,12.26
2018-12-07T12:06:09.098Z,12.33
2018-12-07T12:07:09.118Z,12.30
2018-12-07T12:08:09.105Z,12.30
2018-12-07T12:09:09.118Z,12.36
2018-12-07T12:10:09.127Z,12.37
2018-12-07T12:11:09.156Z,12.34
2018-12-07T12:12:09.137Z,12.38
2018-12-07T12:13:09.144Z,12.38
2018-12-07T12:14:09.145Z,12.37
2018-12-07T12:15:09.150Z,12.38
2018-12-07T12:16:09.169Z,12.40
2018-12-07T12:17:09.165Z,12.37
2018-12-07T12:18:09.171Z,12.37
2018-12-07T12:19:09.182Z,12.41
2018-12-07T12:20:09.185Z,12.37
2018-12-07T12:21:09.181Z,12.34
2018-12-07T12:22:09.201Z,12.37
2018-12-07T12:23:09.214Z,12.41
2018-12-07T12:24:09.212Z,12.43
2018-12-07T12:25:09.230Z,12.41
2018-12-07T12:26:09.226Z,12.38
2018-12-07T12:27:09.232Z,12.43
2018-12-07T12:28:09.234Z,12.46
2018-12-07T12:29:09.243Z,12.48
2018-12-07T12:30:09.271Z,12.41
2018-12-07T12:31:09.266Z,12.49
2018-12-07T12:32:09.271Z,12.49
2018-12-07T12:33:09.277Z,12.38
2018-12-07T12:34:09.274Z,12.41
2018-12-07T12:35:09.284Z,12.46
2018-12-07T12:36:16.782Z,12.38
2018-12-07T12:37:09.293Z,12.37
2018-12-07T12:38:09.306Z,12.34
2018-12-07T12:39:09.309Z,12.34
2018-12-07T12:40:09.313Z,12.41
2018-12-07T12:41:09.322Z,12.46
2018-12-07T12:42:09.342Z,12.44
2018-12-07T12:43:09.332Z,12.51
2018-12-07T12:44:09.339Z,12.46
2018-12-07T12:45:09.358Z,12.49
2018-12-07T12:47:09.363Z,12.44
2018-12-07T12:48:09.366Z,12.46
2018-12-07T12:49:09.380Z,12.46
2018-12-07T12:50:09.383Z,12.49
2018-12-07T12:51:09.383Z,12.52
2018-12-07T12:52:09.384Z,12.59
2018-12-07T12:53:09.402Z,12.56
2018-12-07T12:54:09.437Z,12.48
2018-12-07T12:55:09.407Z,12.54
2018-12-07T12:56:09.417Z,12.55
2018-12-07T12:57:09.427Z,12.48
2018-12-07T12:58:09.522Z,12.49
2018-12-07T12:59:09.434Z,12.51
2018-12-07T13:00:09.510Z,12.52
2018-12-07T13:01:09.454Z,12.55
2018-12-07T13:02:09.465Z,12.56
2018-12-07T13:03:09.518Z,12.63
2018-12-07T13:04:09.476Z,12.54
2018-12-07T13:05:09.479Z,12.51
2018-12-07T13:06:09.483Z,12.56
2018-12-07T13:07:09.492Z,12.58
2018-12-07T13:08:09.500Z,12.61
2018-12-07T13:09:09.515Z,12.51
2018-12-07T13:10:09.523Z,12.56
2018-12-07T13:11:09.521Z,12.52
2018-12-07T13:12:09.526Z,12.59
2018-12-07T13:13:09.532Z,12.62
2018-12-07T13:14:09.542Z,12.61
2018-12-07T13:15:09.541Z,12.63
2018-12-07T13:16:09.557Z,12.63
2018-12-07T13:17:09.559Z,12.70
2018-12-07T13:18:09.617Z,12.67
2018-12-07T13:19:09.573Z,12.67
2018-12-07T13:20:09.579Z,12.67
2018-12-07T13:21:09.588Z,12.62
2018-12-07T13:22:09.595Z,12.67
2018-12-07T13:23:09.621Z,12.63
2018-12-07T13:24:09.611Z,12.66
2018-12-07T13:25:09.614Z,12.76
2018-12-07T13:27:09.636Z,12.67
2018-12-07T13:28:09.649Z,12.74